createdAt,value
2022-12-03T00:00:28.045Z,97588.03
2022-12-03T00:03:16.301Z,97589.80
2022-12-03T00:05:48.893Z,97589.56
2022-12-03T00:08:17.571Z,97588.56
2022-12-03T00:10:45.867Z,97591.59
2022-12-03T00:13:14.201Z,97598.85
2022-12-03T00:15:42.384Z,97601.55
2022-12-03T00:18:10.708Z,97600.61
2022-12-03T00:20:38.794Z,97605.36
2022-12-03T00:23:06.783Z,97605.19
2022-12-03T00:25:35.054Z,97606.98
2022-12-03T00:28:03.171Z,97604.54
2022-12-03T00:30:31.319Z,97605.10
2022-12-03T00:32:59.347Z,97605.55
2022-12-03T00:35:27.566Z,97609.31
2022-12-03T00:37:56.069Z,97614.14
2022-12-03T00:40:24.125Z,97620.68
2022-12-03T00:42:52.287Z,97625.60
2022-12-03T00:45:20.315Z,97630.27
2022-12-03T00:47:48.362Z,97637.50
2022-12-03T00:50:16.736Z,97638.13
2022-12-03T00:52:44.942Z,97636.28
2022-12-03T00:55:13.008Z,97633.31
2022-12-03T00:57:41.024Z,97630.90
2022-12-03T01:00:11.067Z,97631.70
2022-12-03T01:02:39.814Z,97627.95
2022-12-03T01:05:08.603Z,97629.67
2022-12-03T01:07:36.872Z,97629.67
2022-12-03T01:10:05.667Z,97627.70
2022-12-03T01:12:33.770Z,97628.06
2022-12-03T01:15:02.149Z,97629.70
2022-12-03T01:17:30.139Z,97628.39
2022-12-03T01:19:59.163Z,97626.38
2022-12-03T01:22:28.023Z,97626.45
2022-12-03T01:24:56.134Z,97627.42
2022-12-03T01:27:24.305Z,97629.63
2022-12-03T01:29:52.512Z,97625.40
2022-12-03T01:32:20.601Z,97627.32
2022-12-03T01:34:54.233Z,97627.13
2022-12-03T01:37:25.776Z,97620.54
2022-12-03T01:39:54.434Z,97621.08
2022-12-03T01:42:41.749Z,97615.45
2022-12-03T01:45:21.407Z,97612.08
2022-12-03T01:47:49.627Z,97614.23
2022-12-03T01:50:30.399Z,97616.55
2022-12-03T01:53:01.655Z,97614.77
2022-12-03T01:55:30.072Z,97616.69
2022-12-03T01:58:00.951Z,97622.16
2022-12-03T02:00:30.295Z,97621.58
2022-12-03T02:03:07.773Z,97623.31
2022-12-03T02:05:37.101Z,97618.59
2022-12-03T02:08:31.299Z,97618.95
2022-12-03T02:11:06.634Z,97620.55
2022-12-03T02:13:35.327Z,97620.23
2022-12-03T02:16:04.538Z,97619.36
2022-12-03T02:18:32.749Z,97622.53
2022-12-03T02:21:12.369Z,97621.73
2022-12-03T02:23:40.409Z,97619.13
2022-12-03T02:26:08.530Z,97616.11
2022-12-03T02:28:38.262Z,97614.95
2022-12-03T02:31:07.332Z,97613.13
2022-12-03T02:33:35.676Z,97615.46
2022-12-03T02:36:04.353Z,97611.92
2022-12-03T02:38:35.214Z,97613.75
2022-12-03T02:41:07.500Z,97616.38
2022-12-03T02:43:36.053Z,97615.48
2022-12-03T02:46:07.575Z,97616.16
2022-12-03T02:48:41.011Z,97619.21
2022-12-03T02:51:11.067Z,97623.17
2022-12-03T02:53:44.582Z,97623.65
2022-12-03T02:56:16.588Z,97624.02
2022-12-03T02:58:47.115Z,97622.33
2022-12-03T03:01:18.296Z,97624.08
2022-12-03T03:03:48.888Z,97622.66
2022-12-03T03:06:19.730Z,97623.73
2022-12-03T03:08:48.504Z,97624.71
2022-12-03T03:11:16.750Z,97626.11
2022-12-03T03:13:44.917Z,97625.84
2022-12-03T03:16:13.143Z,97627.96
2022-12-03T03:18:42.028Z,97626.84
2022-12-03T03:21:10.429Z,97631.08
2022-12-03T03:23:38.678Z,97631.55
2022-12-03T03:26:10.002Z,97629.51
2022-12-03T03:28:46.152Z,97631.77
2022-12-03T03:31:18.269Z,97632.14
2022-12-03T03:33:48.550Z,97631.00
2022-12-03T03:36:17.135Z,97632.25
2022-12-03T03:38:45.355Z,97632.89
2022-12-03T03:41:14.609Z,97632.89
2022-12-03T03:43:44.468Z,97632.14
2022-12-03T03:46:12.912Z,97632.34
2022-12-03T03:48:42.648Z,97636.59
2022-12-03T03:51:12.325Z,97637.10
2022-12-03T03:53:43.214Z,97638.66
2022-12-03T03:56:13.447Z,97635.29
2022-12-03T03:58:41.611Z,97636.58
2022-12-03T04:01:12.628Z,97636.51
2022-12-03T04:03:41.201Z,97641.75
2022-12-03T04:06:09.974Z,97645.64
2022-12-03T04:08:38.087Z,97645.45
2022-12-03T04:11:25.375Z,97644.61
2022-12-03T04:13:53.528Z,97648.73
2022-12-03T04:16:21.675Z,97652.17
2022-12-03T04:18:49.776Z,97649.20
2022-12-03T04:21:38.734Z,97645.87
2022-12-03T04:24:09.031Z,97649.80
2022-12-03T04:26:56.041Z,97650.16
2022-12-03T04:29:24.312Z,97646.30
2022-12-03T04:32:11.115Z,97644.54
2022-12-03T04:34:58.253Z,97643.69
2022-12-03T04:37:26.330Z,97645.84
2022-12-03T04:39:54.651Z,97646.80
2022-12-03T04:42:22.971Z,97645.55
2022-12-03T04:44:51.101Z,97643.00
2022-12-03T04:47:22.008Z,97644.05
2022-12-03T04:49:51.665Z,97646.26
2022-12-03T04:52:20.861Z,97648.23
2022-12-03T04:54:48.979Z,97652.73
2022-12-03T04:57:17.384Z,97649.16
2022-12-03T04:59:45.473Z,97654.09
2022-12-03T05:02:13.540Z,97653.45
2022-12-03T05:04:42.236Z,97656.21
2022-12-03T05:07:11.818Z,97654.29
2022-12-03T05:09:39.923Z,97655.52
2022-12-03T05:12:08.134Z,97656.63
2022-12-03T05:14:36.650Z,97660.63
2022-12-03T05:17:04.787Z,97660.40
2022-12-03T05:19:51.579Z,97656.16
2022-12-03T05:22:19.630Z,97656.45
2022-12-03T05:24:47.742Z,97653.06
2022-12-03T05:27:20.207Z,97655.42
2022-12-03T05:29:52.597Z,97652.29
2022-12-03T05:32:20.886Z,97651.10
2022-12-03T05:34:48.963Z,97650.83
2022-12-03T05:37:17.082Z,97657.57
2022-12-03T05:39:45.150Z,97658.69
2022-12-03T05:42:31.952Z,97658.50
2022-12-03T05:45:00.222Z,97657.79
2022-12-03T05:47:28.307Z,97662.23
2022-12-03T05:49:56.352Z,97668.78
2022-12-03T05:52:24.385Z,97667.33
2022-12-03T05:54:52.782Z,97668.54
2022-12-03T05:57:21.174Z,97671.35
2022-12-03T05:59:49.372Z,97670.45
2022-12-03T06:02:17.433Z,97670.11
2022-12-03T06:04:45.781Z,97677.89
2022-12-03T06:07:14.409Z,97681.08
2022-12-03T06:09:42.737Z,97683.50
2022-12-03T06:12:10.738Z,97686.24
2022-12-03T06:14:38.839Z,97682.38
2022-12-03T06:17:07.379Z,97688.21
2022-12-03T06:19:35.679Z,97687.92
2022-12-03T06:22:03.988Z,97686.56
2022-12-03T06:24:32.308Z,97690.27
2022-12-03T06:27:00.303Z,97691.65
2022-12-03T06:29:28.493Z,97693.70
2022-12-03T06:31:56.546Z,97693.13
2022-12-03T06:34:24.634Z,97694.52
2022-12-03T06:36:52.661Z,97695.41
2022-12-03T06:39:22.693Z,97694.73
2022-12-03T06:41:50.858Z,97697.44
2022-12-03T06:44:19.088Z,97703.23
2022-12-03T06:46:48.125Z,97700.37
2022-12-03T06:49:16.395Z,97704.91
2022-12-03T06:51:44.484Z,97708.73
2022-12-03T06:54:12.533Z,97705.89
2022-12-03T06:56:45.068Z,97706.41
2022-12-03T06:59:14.060Z,97706.13
2022-12-03T07:01:42.999Z,97702.27
2022-12-03T07:04:11.567Z,97703.96
2022-12-03T07:06:40.312Z,97704.59
2022-12-03T07:09:08.877Z,97704.03
2022-12-03T07:11:40.726Z,97704.39
2022-12-03T07:14:11.686Z,97702.69
2022-12-03T07:16:40.308Z,97703.57
2022-12-03T07:19:09.670Z,97699.89
2022-12-03T07:21:38.169Z,97700.45
2022-12-03T07:24:06.786Z,97701.79
2022-12-03T07:26:37.254Z,97701.61
2022-12-03T07:29:05.612Z,97704.95
2022-12-03T07:31:33.721Z,97707.44
2022-12-03T07:34:02.364Z,97711.33
2022-12-03T07:36:30.686Z,97709.18
2022-12-03T07:38:58.793Z,97707.58
2022-12-03T07:41:26.961Z,97707.77
2022-12-03T07:43:55.196Z,97708.80
2022-12-03T07:46:23.368Z,97705.97
2022-12-03T07:48:54.524Z,97710.85
2022-12-03T07:52:36.036Z,97708.88
2022-12-03T07:55:14.730Z,97714.50
2022-12-03T07:58:13.621Z,97715.96
2022-12-03T08:01:03.897Z,97719.05
2022-12-03T08:11:27.598Z,97713.80
2022-12-03T08:14:53.397Z,97712.98
2022-12-03T08:17:43.288Z,97709.79
2022-12-03T08:20:28.395Z,97706.69
2022-12-03T08:23:11.972Z,97710.67
2022-12-03T08:25:46.571Z,97707.79
2022-12-03T08:28:21.827Z,97705.84
2022-12-03T08:31:07.513Z,97707.94
2022-12-03T08:33:37.168Z,97711.56
2022-12-03T08:36:30.689Z,97707.74
2022-12-03T08:39:20.427Z,97711.06
2022-12-03T08:42:13.918Z,97704.82
2022-12-03T08:44:42.651Z,97706.52
2022-12-03T08:47:19.774Z,97705.69
2022-12-03T08:49:54.368Z,97707.34
2022-12-03T08:52:31.000Z,97706.91
2022-12-03T08:55:02.951Z,97708.48
2022-12-03T08:57:34.657Z,97703.14
2022-12-03T09:00:12.798Z,97707.15
2022-12-03T09:02:46.324Z,97712.36
2022-12-03T09:05:22.729Z,97708.68
2022-12-03T09:07:51.018Z,97708.64
2022-12-03T09:10:19.187Z,97710.11
2022-12-03T09:12:47.995Z,97706.77
2022-12-03T09:15:16.256Z,97709.31
2022-12-03T09:17:44.578Z,97704.81
2022-12-03T09:20:13.183Z,97705.89
2022-12-03T09:22:41.672Z,97706.91
2022-12-03T09:25:09.966Z,97701.28
2022-12-03T09:27:38.098Z,97700.40
2022-12-03T09:30:08.645Z,97700.15
2022-12-03T09:32:37.191Z,97699.70
2022-12-03T09:35:06.340Z,97701.11
2022-12-03T09:37:34.813Z,97700.36
2022-12-03T09:40:03.935Z,97698.41
2022-12-03T09:42:32.061Z,97701.39
2022-12-03T09:45:01.881Z,97694.46
2022-12-03T09:47:31.570Z,97694.77
2022-12-03T09:50:00.468Z,97695.52
2022-12-03T09:52:34.039Z,97691.61
2022-12-03T09:55:08.029Z,97692.75
2022-12-03T09:57:36.791Z,97690.48
2022-12-03T10:00:15.875Z,97691.91
2022-12-03T10:02:44.089Z,97690.25
2022-12-03T10:05:13.476Z,97690.13
2022-12-03T10:07:42.904Z,97686.92
2022-12-03T10:10:20.905Z,97689.14
2022-12-03T10:12:51.075Z,97683.44
2022-12-03T10:15:23.093Z,97683.68
2022-12-03T10:17:55.106Z,97683.58
2022-12-03T10:20:27.156Z,97686.92
2022-12-03T10:22:55.211Z,97683.11
2022-12-03T10:25:24.296Z,97676.95
2022-12-03T10:28:01.417Z,97679.71
2022-12-03T10:30:32.052Z,97680.35
2022-12-03T10:33:18.995Z,97682.35
2022-12-03T10:35:57.780Z,97681.34
2022-12-03T10:39:21.664Z,97685.91
2022-12-03T10:42:17.661Z,97688.48
2022-12-03T10:45:16.818Z,97684.87
2022-12-03T10:48:21.106Z,97687.84
2022-12-03T10:50:53.289Z,97685.24
2022-12-03T10:53:27.823Z,97681.36
2022-12-03T10:56:00.732Z,97679.12
2022-12-03T10:58:34.344Z,97677.83
2022-12-03T11:01:14.903Z,97675.80
2022-12-03T11:03:45.748Z,97673.16
2022-12-03T11:06:23.206Z,97671.89
2022-12-03T11:09:08.297Z,97673.23
2022-12-03T11:11:41.501Z,97671.14
2022-12-03T11:14:14.743Z,97667.02
2022-12-03T11:16:48.338Z,97663.71
2022-12-03T11:19:19.630Z,97659.73
2022-12-03T11:22:06.612Z,97657.19
2022-12-03T11:24:39.596Z,97652.96
2022-12-03T11:27:09.286Z,97654.85
2022-12-03T11:29:54.569Z,97654.71
2022-12-03T11:32:38.544Z,97660.08
2022-12-03T11:35:13.449Z,97658.67
2022-12-03T11:37:43.827Z,97657.34
2022-12-03T11:40:17.328Z,97654.91
2022-12-03T11:42:47.585Z,97652.92
2022-12-03T11:45:23.402Z,97653.20
2022-12-03T11:48:16.179Z,97656.45
2022-12-03T11:50:55.377Z,97656.23
2022-12-03T11:53:27.350Z,97651.23
2022-12-03T11:56:09.265Z,97652.67
2022-12-03T11:58:42.638Z,97656.73
2022-12-03T12:01:12.490Z,97659.50
2022-12-03T12:03:48.426Z,97658.90
2022-12-03T12:06:20.201Z,97657.05
2022-12-03T12:08:50.023Z,97653.67
2022-12-03T12:11:18.195Z,97655.94
2022-12-03T12:13:55.512Z,97654.27
2022-12-03T12:16:43.031Z,97654.26
2022-12-03T12:19:32.800Z,97655.97
2022-12-03T12:22:21.068Z,97658.31
2022-12-03T12:25:32.684Z,97651.64
2022-12-03T12:28:02.329Z,97653.19
2022-12-03T12:30:31.026Z,97648.05
2022-12-03T12:33:12.422Z,97649.98
2022-12-03T12:35:41.067Z,97647.12
2022-12-03T12:38:12.073Z,97648.21
2022-12-03T12:40:43.020Z,97641.23
2022-12-03T12:43:15.277Z,97638.31
2022-12-03T12:45:46.044Z,97639.23
2022-12-03T12:48:22.254Z,97641.64
2022-12-03T12:50:58.932Z,97639.60
2022-12-03T12:53:35.048Z,97646.95
2022-12-03T12:56:26.633Z,97649.05
2022-12-03T12:58:54.850Z,97648.52
2022-12-03T13:01:27.298Z,97646.78
2022-12-03T13:03:58.451Z,97646.85
2022-12-03T13:06:32.318Z,97650.22
2022-12-03T13:09:01.827Z,97651.59
2022-12-03T13:11:35.631Z,97650.23
2022-12-03T13:14:19.649Z,97649.67
2022-12-03T13:16:49.786Z,97644.86
2022-12-03T13:19:49.391Z,97642.98
2022-12-03T13:22:23.108Z,97644.58
2022-12-03T13:24:54.418Z,97643.73
2022-12-03T13:27:31.964Z,97645.80
2022-12-03T13:30:14.267Z,97644.59
2022-12-03T13:32:44.159Z,97647.90
2022-12-03T13:35:27.082Z,97648.90
2022-12-03T13:37:55.787Z,97649.41
2022-12-03T13:40:30.830Z,97652.45
2022-12-03T13:42:59.507Z,97657.13
2022-12-03T13:45:43.780Z,97651.60
2022-12-03T13:48:21.366Z,97651.00
2022-12-03T13:50:52.724Z,97647.86
2022-12-03T13:53:26.617Z,97644.36
2022-12-03T13:56:34.173Z,97650.07
2022-12-03T13:59:04.538Z,97650.42
2022-12-03T14:01:33.279Z,97653.16
2022-12-03T14:04:01.688Z,97661.39
2022-12-03T14:06:30.035Z,97663.24
2022-12-03T14:08:58.989Z,97661.21
2022-12-03T14:11:45.877Z,97663.45
2022-12-03T14:14:14.602Z,97665.39
2022-12-03T14:16:43.201Z,97672.73
2022-12-03T14:19:11.251Z,97673.09
2022-12-03T14:21:39.508Z,97680.26
2022-12-03T14:24:07.791Z,97681.21
2022-12-03T14:26:36.143Z,97680.01
2022-12-03T14:29:08.752Z,97676.77
2022-12-03T14:31:37.342Z,97678.63
2022-12-03T14:34:05.834Z,97682.28
2022-12-03T14:36:33.960Z,97680.73
2022-12-03T14:39:02.891Z,97678.61
2022-12-03T14:41:49.403Z,97675.59
2022-12-03T14:44:18.805Z,97677.73
2022-12-03T14:46:47.531Z,97680.02
2022-12-03T14:49:16.044Z,97689.65
2022-12-03T14:51:44.231Z,97693.89
2022-12-03T14:54:13.910Z,97693.67
2022-12-03T14:56:41.950Z,97694.08
2022-12-03T14:59:10.857Z,97696.73
2022-12-03T15:01:39.068Z,97698.37
2022-12-03T15:04:08.012Z,97702.28
2022-12-03T15:06:36.088Z,97703.79
2022-12-03T15:09:04.937Z,97703.67
2022-12-03T15:11:34.755Z,97700.26
2022-12-03T15:14:05.381Z,97706.66
2022-12-03T15:16:34.859Z,97708.88
2022-12-03T15:19:04.925Z,97708.26
2022-12-03T15:21:35.133Z,97710.98
2022-12-03T15:24:03.756Z,97712.60
2022-12-03T15:26:31.784Z,97714.23
2022-12-03T15:29:00.380Z,97714.54
2022-12-03T15:31:28.951Z,97718.23
2022-12-03T15:33:57.622Z,97718.61
2022-12-03T15:36:25.755Z,97716.71
2022-12-03T15:38:53.887Z,97718.22
2022-12-03T15:41:25.742Z,97717.96
2022-12-03T15:43:53.977Z,97721.88
2022-12-03T15:46:23.878Z,97724.88
2022-12-03T15:48:52.906Z,97727.70
2022-12-03T15:51:21.204Z,97730.38
2022-12-03T15:53:49.881Z,97733.96
2022-12-03T15:56:18.023Z,97734.19
2022-12-03T15:58:46.245Z,97735.36
2022-12-03T16:01:15.373Z,97736.79
2022-12-03T16:03:43.653Z,97739.00
2022-12-03T16:06:12.725Z,97736.94
2022-12-03T16:08:40.765Z,97739.02
2022-12-03T16:11:09.412Z,97739.41
2022-12-03T16:13:37.479Z,97735.56
2022-12-03T16:16:06.780Z,97731.52
2022-12-03T16:18:35.220Z,97733.63
2022-12-03T16:21:03.383Z,97727.77
2022-12-03T16:23:31.456Z,97725.23
2022-12-03T16:26:00.893Z,97726.09
2022-12-03T16:28:29.428Z,97721.27
2022-12-03T16:30:58.209Z,97724.41
2022-12-03T16:33:27.971Z,97727.49
2022-12-03T16:35:56.350Z,97724.50
2022-12-03T16:38:25.343Z,97724.89
2022-12-03T16:40:53.440Z,97726.43
2022-12-03T16:43:21.626Z,97728.28
2022-12-03T16:46:03.153Z,97727.35
2022-12-03T16:48:31.738Z,97727.64
2022-12-03T16:51:00.698Z,97726.30
2022-12-03T16:53:28.664Z,97726.18
2022-12-03T16:55:56.836Z,97729.49
2022-12-03T16:58:25.345Z,97731.96
2022-12-03T17:00:54.441Z,97733.86
2022-12-03T17:03:22.972Z,97733.95
2022-12-03T17:05:51.052Z,97736.65
2022-12-03T17:08:19.334Z,97740.69
2022-12-03T17:10:47.832Z,97744.94
2022-12-03T17:13:16.087Z,97751.19
2022-12-03T17:15:44.395Z,97751.13
2022-12-03T17:18:12.630Z,97749.00
2022-12-03T17:20:41.860Z,97749.64
2022-12-03T17:23:11.975Z,97748.30
2022-12-03T17:25:40.090Z,97748.86
2022-12-03T17:28:08.247Z,97750.67
2022-12-03T17:30:38.544Z,97752.23
2022-12-03T17:33:06.603Z,97752.31
2022-12-03T17:35:34.897Z,97752.04
2022-12-03T17:38:03.028Z,97753.85
2022-12-03T17:40:31.535Z,97755.58
2022-12-03T17:42:59.653Z,97759.84
2022-12-03T17:45:28.681Z,97757.14
2022-12-03T17:47:56.904Z,97756.31
2022-12-03T17:50:26.255Z,97759.37
2022-12-03T17:52:54.356Z,97759.59
2022-12-03T17:55:31.954Z,97763.02
2022-12-03T17:58:06.713Z,97762.96
2022-12-03T18:00:34.880Z,97763.10
2022-12-03T18:03:03.213Z,97761.63
2022-12-03T18:05:31.233Z,97760.16
2022-12-03T18:08:00.193Z,97756.66
2022-12-03T18:10:28.880Z,97755.41
2022-12-03T18:13:01.687Z,97749.54
2022-12-03T18:15:32.297Z,97755.54
2022-12-03T18:18:07.703Z,97753.14
2022-12-03T18:20:37.817Z,97749.41
2022-12-03T18:23:06.046Z,97752.94
2022-12-03T18:25:34.267Z,97750.95
2022-12-03T18:28:03.135Z,97750.17
2022-12-03T18:30:31.791Z,97749.98
2022-12-03T18:33:00.570Z,97749.51
2022-12-03T18:35:28.835Z,97750.41
2022-12-03T18:37:56.963Z,97754.83
2022-12-03T18:40:27.430Z,97756.59
2022-12-03T18:42:57.592Z,97756.98
2022-12-03T18:45:28.426Z,97754.73
2022-12-03T18:47:57.352Z,97754.23
2022-12-03T18:50:25.352Z,97751.94
2022-12-03T18:52:53.556Z,97755.16
2022-12-03T18:55:22.016Z,97752.58
2022-12-03T18:57:50.529Z,97751.48
2022-12-03T19:00:18.816Z,97753.85
2022-12-03T19:03:03.020Z,97750.30
2022-12-03T19:05:34.197Z,97747.83
2022-12-03T19:08:04.004Z,97753.02
2022-12-03T19:10:32.144Z,97751.97
2022-12-03T19:13:01.021Z,97752.55
2022-12-03T19:15:30.774Z,97751.55
2022-12-03T19:17:58.804Z,97750.92
2022-12-03T19:20:26.936Z,97753.30
2022-12-03T19:22:55.127Z,97753.69
2022-12-03T19:25:23.292Z,97744.20
2022-12-03T19:27:55.175Z,97746.16
2022-12-03T19:30:24.276Z,97745.52
2022-12-03T19:32:52.435Z,97743.62
2022-12-03T19:35:22.688Z,97742.82
2022-12-03T19:37:52.002Z,97745.48
2022-12-03T19:40:20.088Z,97744.77
2022-12-03T19:42:48.200Z,97754.66
2022-12-03T19:45:16.424Z,97756.50
2022-12-03T19:47:45.781Z,97760.86
2022-12-03T19:50:22.682Z,97755.52
2022-12-03T19:52:51.346Z,97756.00
2022-12-03T19:55:22.312Z,97757.27
2022-12-03T19:57:50.491Z,97757.58
2022-12-03T20:00:18.875Z,97760.70
2022-12-03T20:02:50.021Z,97762.15
2022-12-03T20:05:19.681Z,97760.52
2022-12-03T20:07:47.903Z,97759.42
2022-12-03T20:10:16.184Z,97763.35
2022-12-03T20:12:44.867Z,97762.33
2022-12-03T20:15:13.659Z,97760.08
2022-12-03T20:17:43.617Z,97762.98
2022-12-03T20:20:12.004Z,97763.72
2022-12-03T20:22:40.137Z,97760.92
2022-12-03T20:25:10.186Z,97760.45
2022-12-03T20:27:38.376Z,97760.77
2022-12-03T20:30:07.766Z,97757.27
2022-12-03T20:32:39.402Z,97757.11
2022-12-03T20:35:12.359Z,97752.77
2022-12-03T20:37:40.701Z,97758.04
2022-12-03T20:40:09.649Z,97761.40
2022-12-03T20:42:37.937Z,97760.30
2022-12-03T20:45:07.412Z,97761.59
2022-12-03T20:47:35.660Z,97760.41
2022-12-03T20:50:03.945Z,97762.86
2022-12-03T20:52:32.118Z,97765.39
2022-12-03T20:55:00.392Z,97767.64
2022-12-03T20:57:29.590Z,97766.17
2022-12-03T20:59:57.906Z,97760.84
2022-12-03T21:02:27.222Z,97757.40
2022-12-03T21:04:56.008Z,97761.42
2022-12-03T21:07:24.089Z,97759.79
2022-12-03T21:09:52.503Z,97761.35
2022-12-03T21:12:20.817Z,97758.26
2022-12-03T21:14:48.954Z,97758.21
2022-12-03T21:17:17.206Z,97758.91
2022-12-03T21:19:46.309Z,97761.68
2022-12-03T21:22:15.163Z,97763.23
2022-12-03T21:24:43.906Z,97760.38
2022-12-03T21:27:14.574Z,97766.19
2022-12-03T21:29:46.691Z,97761.36
2022-12-03T21:32:14.757Z,97762.66
2022-12-03T21:34:44.753Z,97758.44
2022-12-03T21:37:13.660Z,97752.85
2022-12-03T21:39:42.142Z,97750.06
2022-12-03T21:42:35.009Z,97753.16
2022-12-03T21:44:58.871Z,97758.84
2022-12-03T21:47:28.922Z,97754.80
2022-12-03T21:49:59.025Z,97754.03
2022-12-03T21:52:28.072Z,97756.55
2022-12-03T21:54:56.185Z,97758.78
2022-12-03T21:57:25.020Z,97757.78
2022-12-03T21:59:53.709Z,97760.83
2022-12-03T22:02:22.464Z,97758.91
2022-12-03T22:04:51.419Z,97756.77
2022-12-03T22:07:19.698Z,97755.27
2022-12-03T22:09:47.805Z,97754.15
2022-12-03T22:12:15.912Z,97753.16
2022-12-03T22:14:44.069Z,97753.40
2022-12-03T22:17:12.193Z,97754.95
2022-12-03T22:19:40.476Z,97759.47
2022-12-03T22:22:08.639Z,97756.61
2022-12-03T22:24:36.805Z,97757.38
2022-12-03T22:27:05.095Z,97748.45
2022-12-03T22:29:33.214Z,97745.33
2022-12-03T22:32:01.420Z,97748.64
2022-12-03T22:34:29.526Z,97747.33
2022-12-03T22:36:57.591Z,97748.13
2022-12-03T22:39:25.649Z,97747.16
2022-12-03T22:41:54.047Z,97749.77
2022-12-03T22:44:22.165Z,97753.02
2022-12-03T22:46:50.320Z,97751.02
2022-12-03T22:49:18.619Z,97749.75
2022-12-03T22:51:47.549Z,97752.45
2022-12-03T22:54:18.277Z,97752.23
2022-12-03T22:56:50.498Z,97750.35
2022-12-03T22:59:18.584Z,97749.15
2022-12-03T23:01:47.821Z,97743.56
2022-12-03T23:04:16.311Z,97741.59
2022-12-03T23:06:44.475Z,97736.27
2022-12-03T23:09:12.786Z,97729.15
2022-12-03T23:11:44.854Z,97732.58
2022-12-03T23:14:13.232Z,97731.65
2022-12-03T23:16:41.330Z,97730.17
2022-12-03T23:19:09.359Z,97728.20
2022-12-03T23:21:37.731Z,97732.19
2022-12-03T23:24:06.595Z,97731.01
2022-12-03T23:26:37.692Z,97731.20
2022-12-03T23:29:06.563Z,97734.48
2022-12-03T23:31:34.870Z,97730.67
2022-12-03T23:34:04.135Z,97731.75
2022-12-03T23:36:33.770Z,97727.50
2022-12-03T23:39:02.142Z,97730.98
2022-12-03T23:41:30.281Z,97730.06
2022-12-03T23:43:58.786Z,97724.57
2022-12-03T23:46:28.177Z,97724.88
2022-12-03T23:48:58.859Z,97728.16
2022-12-03T23:51:27.736Z,97727.35
2022-12-03T23:53:57.024Z,97731.98
2022-12-03T23:56:29.197Z,97735.03
2022-12-03T23:58:59.023Z,97736.55
